Marble, North Carolina
Current Conditions -  °F | °C
As of 10:55 AM on Friday 21 Nov 2014 (Local Time) from KRHP Reporting Station
Clear Clear  
Wind Chill: 44°   Ceiling: Unl
Heat Index: 44°   Visibility: 10mi
Dew Point: 29°   Wind: 0mph
Humidity: 56%   Direction: NA
Pressure: 30.4"   Gusts: NA
Location:  35.18°N, 83.92°W
Report Text: KRHP 211555Z AUTO 00000KT 10SM CLR 06/M02 A3040 RMK AO2 T00641017
Loading
Personal Weather Stations






























Interactive Weather Map New forecast layout! Learn more

10-Day Weather Forecast

Advertisements
Track Severe Weather on mobile